Terminal Aerodrome Forecast
Issued by NWS Charleston, WV

Current Version | Previous Version | Graphics & Text | Print | Product List | Glossary On
Versions: 1 2 3 4 5 6 7 8 9 10 11 12 13 14 15 16 17 18 19 20 21 22 23 24
000
FTUS41 KRLX 221134
TAFPKB
TAF
KPKB 221134Z 2212/2312 02009KT P6SM OVC040
     FM221700 02009KT P6SM -SHRA OVC030
     FM222100 04007KT P6SM OVC030
     FM222300 03005KT P6SM OVC035=

USA.gov is the U.S. government's official web portal to all federal, state and local government web resources and services.